sensor_id;sensor_type;location;lat;lon;timestamp;P1;durP1;ratioP1;P2;durP2;ratioP2
57321;SDS011;43159;51.006;18.224;2023-03-14T00:00:39;6.40;;;2.80;;
57321;SDS011;43159;51.006;18.224;2023-03-14T00:10:21;8.40;;;2.50;;
57321;SDS011;43159;51.006;18.224;2023-03-14T00:20:04;8.50;;;3.30;;
57321;SDS011;43159;51.006;18.224;2023-03-14T00:29:50;16.70;;;3.40;;
57321;SDS011;43159;51.006;18.224;2023-03-14T00:39:32;10.70;;;3.30;;
57321;SDS011;43159;51.006;18.224;2023-03-14T00:56:31;8.50;;;2.90;;
57321;SDS011;43159;51.006;18.224;2023-03-14T01:06:18;13.60;;;2.60;;
57321;SDS011;43159;51.006;18.224;2023-03-14T01:16:04;9.10;;;2.70;;
57321;SDS011;43159;51.006;18.224;2023-03-14T01:25:48;12.00;;;3.20;;
57321;SDS011;43159;51.006;18.224;2023-03-14T01:35:32;15.10;;;3.30;;
57321;SDS011;43159;51.006;18.224;2023-03-14T01:55:37;9.90;;;3.30;;
57321;SDS011;43159;51.006;18.224;2023-03-14T02:05:21;9.40;;;2.80;;
57321;SDS011;43159;51.006;18.224;2023-03-14T02:15:10;12.10;;;3.40;;
57321;SDS011;43159;51.006;18.224;2023-03-14T02:24:59;9.20;;;3.00;;
57321;SDS011;43159;51.006;18.224;2023-03-14T02:35:11;13.70;;;4.10;;
57321;SDS011;43159;51.006;18.224;2023-03-14T02:54:55;11.50;;;3.10;;
57321;SDS011;43159;51.006;18.224;2023-03-14T03:04:37;13.30;;;3.10;;
57321;SDS011;43159;51.006;18.224;2023-03-14T03:14:19;15.20;;;3.00;;
57321;SDS011;43159;51.006;18.224;2023-03-14T03:24:04;6.60;;;2.30;;
57321;SDS011;43159;51.006;18.224;2023-03-14T03:33:46;9.10;;;2.80;;
57321;SDS011;43159;51.006;18.224;2023-03-14T03:43:29;8.80;;;2.70;;
57321;SDS011;43159;51.006;18.224;2023-03-14T03:53:12;15.00;;;3.10;;
57321;SDS011;43159;51.006;18.224;2023-03-14T04:02:58;8.90;;;2.90;;
57321;SDS011;43159;51.006;18.224;2023-03-14T04:12:40;6.90;;;2.40;;
57321;SDS011;43159;51.006;18.224;2023-03-14T04:22:23;10.80;;;2.70;;
57321;SDS011;43159;51.006;18.224;2023-03-14T04:32:06;8.30;;;2.60;;
57321;SDS011;43159;51.006;18.224;2023-03-14T04:41:47;7.60;;;2.70;;
57321;SDS011;43159;51.006;18.224;2023-03-14T04:51:29;6.90;;;2.80;;
57321;SDS011;43159;51.006;18.224;2023-03-14T05:01:12;16.10;;;5.00;;
57321;SDS011;43159;51.006;18.224;2023-03-14T05:10:55;8.90;;;2.40;;
57321;SDS011;43159;51.006;18.224;2023-03-14T05:20:38;10.50;;;2.80;;
57321;SDS011;43159;51.006;18.224;2023-03-14T05:30:20;10.90;;;2.90;;
57321;SDS011;43159;51.006;18.224;2023-03-14T05:40:04;8.80;;;3.30;;
57321;SDS011;43159;51.006;18.224;2023-03-14T05:49:48;12.10;;;2.80;;
57321;SDS011;43159;51.006;18.224;2023-03-14T05:59:31;10.20;;;4.00;;
57321;SDS011;43159;51.006;18.224;2023-03-14T06:09:13;6.70;;;2.40;;
57321;SDS011;43159;51.006;18.224;2023-03-14T06:18:57;9.20;;;3.00;;
57321;SDS011;43159;51.006;18.224;2023-03-14T06:28:39;10.40;;;3.20;;
57321;SDS011;43159;51.006;18.224;2023-03-14T06:38:21;9.60;;;3.00;;
57321;SDS011;43159;51.006;18.224;2023-03-14T06:48:03;7.30;;;2.60;;
57321;SDS011;43159;51.006;18.224;2023-03-14T06:57:46;11.20;;;2.90;;
57321;SDS011;43159;51.006;18.224;2023-03-14T07:07:29;10.30;;;3.50;;
57321;SDS011;43159;51.006;18.224;2023-03-14T07:17:11;8.00;;;2.60;;
57321;SDS011;43159;51.006;18.224;2023-03-14T07:26:55;8.90;;;3.60;;
57321;SDS011;43159;51.006;18.224;2023-03-14T07:36:36;10.90;;;3.80;;
57321;SDS011;43159;51.006;18.224;2023-03-14T07:46:20;13.80;;;4.70;;
57321;SDS011;43159;51.006;18.224;2023-03-14T07:56:03;19.00;;;5.70;;
57321;SDS011;43159;51.006;18.224;2023-03-14T08:05:49;4.50;;;1.60;;
57321;SDS011;43159;51.006;18.224;2023-03-14T08:15:32;11.30;;;2.90;;
57321;SDS011;43159;51.006;18.224;2023-03-14T08:25:16;12.00;;;4.00;;
57321;SDS011;43159;51.006;18.224;2023-03-14T08:35:01;11.90;;;3.80;;
57321;SDS011;43159;51.006;18.224;2023-03-14T08:44:44;9.80;;;4.10;;
57321;SDS011;43159;51.006;18.224;2023-03-14T08:54:27;8.60;;;2.80;;
57321;SDS011;43159;51.006;18.224;2023-03-14T09:04:09;14.60;;;3.60;;
57321;SDS011;43159;51.006;18.224;2023-03-14T09:13:52;11.70;;;3.50;;
57321;SDS011;43159;51.006;18.224;2023-03-14T09:23:34;10.90;;;4.20;;
57321;SDS011;43159;51.006;18.224;2023-03-14T09:33:16;13.60;;;4.80;;
57321;SDS011;43159;51.006;18.224;2023-03-14T09:43:00;10.90;;;3.60;;
57321;SDS011;43159;51.006;18.224;2023-03-14T09:52:48;13.00;;;4.20;;
57321;SDS011;43159;51.006;18.224;2023-03-14T10:02:45;10.10;;;3.20;;
57321;SDS011;43159;51.006;18.224;2023-03-14T10:12:36;17.00;;;3.60;;
57321;SDS011;43159;51.006;18.224;2023-03-14T10:22:31;11.40;;;4.60;;
57321;SDS011;43159;51.006;18.224;2023-03-14T10:32:28;15.90;;;6.00;;
57321;SDS011;43159;51.006;18.224;2023-03-14T10:42:31;13.50;;;5.50;;
57321;SDS011;43159;51.006;18.224;2023-03-14T11:12:30;31.10;;;11.00;;
57321;SDS011;43159;51.006;18.224;2023-03-14T11:23:20;16.90;;;6.00;;
57321;SDS011;43159;51.006;18.224;2023-03-14T11:33:22;11.90;;;4.90;;
57321;SDS011;43159;51.006;18.224;2023-03-14T11:43:40;15.50;;;5.70;;
57321;SDS011;43159;51.006;18.224;2023-03-14T12:03:32;13.40;;;6.20;;
57321;SDS011;43159;51.006;18.224;2023-03-14T12:14:29;12.00;;;4.90;;
57321;SDS011;43159;51.006;18.224;2023-03-14T12:24:19;16.60;;;5.30;;
57321;SDS011;43159;51.006;18.224;2023-03-14T12:44:37;16.30;;;8.20;;
57321;SDS011;43159;51.006;18.224;2023-03-14T12:54:41;13.30;;;5.10;;
57321;SDS011;43159;51.006;18.224;2023-03-14T13:04:45;13.30;;;6.00;;
57321;SDS011;43159;51.006;18.224;2023-03-14T13:15:23;17.90;;;6.00;;
57321;SDS011;43159;51.006;18.224;2023-03-14T13:25:34;11.70;;;5.50;;
57321;SDS011;43159;51.006;18.224;2023-03-14T13:35:20;14.90;;;5.80;;
57321;SDS011;43159;51.006;18.224;2023-03-14T13:45:12;11.80;;;4.70;;
57321;SDS011;43159;51.006;18.224;2023-03-14T13:54:58;9.80;;;4.20;;
57321;SDS011;43159;51.006;18.224;2023-03-14T14:04:51;9.80;;;4.10;;
57321;SDS011;43159;51.006;18.224;2023-03-14T14:14:49;17.30;;;7.10;;
57321;SDS011;43159;51.006;18.224;2023-03-14T14:24:56;14.00;;;6.10;;
57321;SDS011;43159;51.006;18.224;2023-03-14T14:35:09;11.30;;;4.50;;
57321;SDS011;43159;51.006;18.224;2023-03-14T14:44:59;14.60;;;6.30;;
57321;SDS011;43159;51.006;18.224;2023-03-14T14:54:48;17.40;;;8.90;;
57321;SDS011;43159;51.006;18.224;2023-03-14T15:05:05;12.60;;;6.40;;
57321;SDS011;43159;51.006;18.224;2023-03-14T15:14:53;12.40;;;5.50;;
57321;SDS011;43159;51.006;18.224;2023-03-14T15:24:40;20.40;;;8.00;;
57321;SDS011;43159;51.006;18.224;2023-03-14T15:34:28;18.30;;;8.30;;
57321;SDS011;43159;51.006;18.224;2023-03-14T15:44:09;16.20;;;6.50;;
57321;SDS011;43159;51.006;18.224;2023-03-14T15:53:52;13.40;;;5.70;;
57321;SDS011;43159;51.006;18.224;2023-03-14T16:03:37;19.70;;;7.50;;
57321;SDS011;43159;51.006;18.224;2023-03-14T16:13:20;10.50;;;3.80;;
57321;SDS011;43159;51.006;18.224;2023-03-14T16:23:19;22.90;;;7.30;;
57321;SDS011;43159;51.006;18.224;2023-03-14T16:33:00;17.40;;;7.00;;
57321;SDS011;43159;51.006;18.224;2023-03-14T16:42:43;14.80;;;6.50;;
57321;SDS011;43159;51.006;18.224;2023-03-14T16:52:27;13.00;;;4.90;;
57321;SDS011;43159;51.006;18.224;2023-03-14T17:02:19;13.50;;;6.60;;
57321;SDS011;43159;51.006;18.224;2023-03-14T17:12:03;16.30;;;7.90;;
57321;SDS011;43159;51.006;18.224;2023-03-14T17:21:46;8.80;;;2.60;;
57321;SDS011;43159;51.006;18.224;2023-03-14T17:31:28;13.00;;;6.80;;
57321;SDS011;43159;51.006;18.224;2023-03-14T17:41:13;21.70;;;6.40;;
57321;SDS011;43159;51.006;18.224;2023-03-14T17:51:01;24.80;;;8.90;;
57321;SDS011;43159;51.006;18.224;2023-03-14T18:00:44;17.80;;;9.20;;
57321;SDS011;43159;51.006;18.224;2023-03-14T18:10:30;17.30;;;7.70;;
57321;SDS011;43159;51.006;18.224;2023-03-14T18:20:12;19.10;;;8.00;;
57321;SDS011;43159;51.006;18.224;2023-03-14T18:29:56;19.90;;;7.70;;
57321;SDS011;43159;51.006;18.224;2023-03-14T18:39:39;13.20;;;4.70;;
57321;SDS011;43159;51.006;18.224;2023-03-14T18:49:24;14.50;;;6.40;;
57321;SDS011;43159;51.006;18.224;2023-03-14T18:59:06;22.60;;;8.30;;
57321;SDS011;43159;51.006;18.224;2023-03-14T19:08:49;21.30;;;7.40;;
57321;SDS011;43159;51.006;18.224;2023-03-14T19:18:32;21.80;;;6.80;;
57321;SDS011;43159;51.006;18.224;2023-03-14T19:28:22;21.00;;;9.00;;
57321;SDS011;43159;51.006;18.224;2023-03-14T19:38:05;15.60;;;7.70;;
57321;SDS011;43159;51.006;18.224;2023-03-14T19:47:49;17.70;;;8.40;;
57321;SDS011;43159;51.006;18.224;2023-03-14T19:57:35;22.00;;;9.00;;
57321;SDS011;43159;51.006;18.224;2023-03-14T20:07:27;18.20;;;7.80;;
57321;SDS011;43159;51.006;18.224;2023-03-14T20:17:10;22.60;;;9.10;;
57321;SDS011;43159;51.006;18.224;2023-03-14T20:26:54;15.60;;;8.30;;
57321;SDS011;43159;51.006;18.224;2023-03-14T20:36:36;14.60;;;8.10;;
57321;SDS011;43159;51.006;18.224;2023-03-14T20:46:19;12.70;;;4.80;;
57321;SDS011;43159;51.006;18.224;2023-03-14T20:56:03;17.00;;;7.80;;
57321;SDS011;43159;51.006;18.224;2023-03-14T21:05:48;11.30;;;5.70;;
57321;SDS011;43159;51.006;18.224;2023-03-14T21:15:31;14.20;;;3.70;;
57321;SDS011;43159;51.006;18.224;2023-03-14T21:25:16;7.00;;;2.00;;
57321;SDS011;43159;51.006;18.224;2023-03-14T21:35:02;7.40;;;1.70;;
57321;SDS011;43159;51.006;18.224;2023-03-14T21:44:49;38.70;;;10.40;;
57321;SDS011;43159;51.006;18.224;2023-03-14T21:54:53;13.10;;;3.00;;
57321;SDS011;43159;51.006;18.224;2023-03-14T22:04:38;13.70;;;3.00;;
57321;SDS011;43159;51.006;18.224;2023-03-14T22:14:22;7.60;;;1.60;;
57321;SDS011;43159;51.006;18.224;2023-03-14T22:24:08;7.70;;;2.20;;
57321;SDS011;43159;51.006;18.224;2023-03-14T22:33:50;2.20;;;1.30;;
57321;SDS011;43159;51.006;18.224;2023-03-14T22:43:32;3.90;;;1.40;;
57321;SDS011;43159;51.006;18.224;2023-03-14T22:53:15;9.30;;;1.70;;
57321;SDS011;43159;51.006;18.224;2023-03-14T23:02:58;5.10;;;1.30;;
57321;SDS011;43159;51.006;18.224;2023-03-14T23:12:41;6.30;;;1.50;;
57321;SDS011;43159;51.006;18.224;2023-03-14T23:22:30;5.40;;;2.00;;
57321;SDS011;43159;51.006;18.224;2023-03-14T23:32:15;6.80;;;1.90;;
57321;SDS011;43159;51.006;18.224;2023-03-14T23:41:58;8.20;;;2.60;;
57321;SDS011;43159;51.006;18.224;2023-03-14T23:51:43;16.10;;;2.00;;
